sensor_id;sensor_type;location;lat;lon;timestamp;temperature;humidity
56172;DHT22;42052;41.634;-0.946;2023-07-20T00:01:05;26.70;46.10
56172;DHT22;42052;41.634;-0.946;2023-07-20T00:03:31;26.70;46.00
56172;DHT22;42052;41.634;-0.946;2023-07-20T00:05:57;26.70;46.10
56172;DHT22;42052;41.634;-0.946;2023-07-20T00:08:22;26.60;46.00
56172;DHT22;42052;41.634;-0.946;2023-07-20T00:10:48;26.70;46.00
56172;DHT22;42052;41.634;-0.946;2023-07-20T00:13:14;26.70;46.00
56172;DHT22;42052;41.634;-0.946;2023-07-20T00:15:41;26.70;45.90
56172;DHT22;42052;41.634;-0.946;2023-07-20T00:18:07;26.70;45.90
56172;DHT22;42052;41.634;-0.946;2023-07-20T00:20:33;26.70;45.90
56172;DHT22;42052;41.634;-0.946;2023-07-20T00:22:59;26.70;45.80
56172;DHT22;42052;41.634;-0.946;2023-07-20T00:25:25;26.70;45.80
56172;DHT22;42052;41.634;-0.946;2023-07-20T00:27:50;26.70;45.70
56172;DHT22;42052;41.634;-0.946;2023-07-20T00:30:17;26.70;45.70
56172;DHT22;42052;41.634;-0.946;2023-07-20T00:32:44;26.70;45.70
56172;DHT22;42052;41.634;-0.946;2023-07-20T00:35:10;26.70;45.60
56172;DHT22;42052;41.634;-0.946;2023-07-20T00:37:36;26.70;45.60
56172;DHT22;42052;41.634;-0.946;2023-07-20T00:40:02;26.70;45.50
56172;DHT22;42052;41.634;-0.946;2023-07-20T00:42:30;26.80;45.50
56172;DHT22;42052;41.634;-0.946;2023-07-20T00:44:56;26.70;45.40
56172;DHT22;42052;41.634;-0.946;2023-07-20T00:47:21;26.70;45.40
56172;DHT22;42052;41.634;-0.946;2023-07-20T00:49:48;26.70;45.40
56172;DHT22;42052;41.634;-0.946;2023-07-20T00:52:14;26.70;45.40
56172;DHT22;42052;41.634;-0.946;2023-07-20T00:54:41;26.80;45.40
56172;DHT22;42052;41.634;-0.946;2023-07-20T00:57:07;26.70;45.30
56172;DHT22;42052;41.634;-0.946;2023-07-20T00:59:36;26.80;45.30
56172;DHT22;42052;41.634;-0.946;2023-07-20T01:02:02;26.70;45.20
56172;DHT22;42052;41.634;-0.946;2023-07-20T01:04:28;26.70;45.20
56172;DHT22;42052;41.634;-0.946;2023-07-20T01:09:31;26.70;45.10
56172;DHT22;42052;41.634;-0.946;2023-07-20T01:12:07;26.80;45.20
56172;DHT22;42052;41.634;-0.946;2023-07-20T01:14:34;26.70;45.80
56172;DHT22;42052;41.634;-0.946;2023-07-20T01:17:01;26.70;45.00
56172;DHT22;42052;41.634;-0.946;2023-07-20T01:19:27;26.80;45.00
56172;DHT22;42052;41.634;-0.946;2023-07-20T01:22:02;26.80;45.00
56172;DHT22;42052;41.634;-0.946;2023-07-20T01:32:55;26.70;45.00
56172;DHT22;42052;41.634;-0.946;2023-07-20T01:35:25;26.80;45.10
56172;DHT22;42052;41.634;-0.946;2023-07-20T01:37:53;26.70;45.00
56172;DHT22;42052;41.634;-0.946;2023-07-20T01:40:19;26.70;45.00
56172;DHT22;42052;41.634;-0.946;2023-07-20T01:42:47;26.70;45.00
56172;DHT22;42052;41.634;-0.946;2023-07-20T01:45:13;26.70;45.00
56172;DHT22;42052;41.634;-0.946;2023-07-20T01:47:39;26.70;45.00
56172;DHT22;42052;41.634;-0.946;2023-07-20T01:50:06;26.70;45.00
56172;DHT22;42052;41.634;-0.946;2023-07-20T01:52:32;26.70;45.00
56172;DHT22;42052;41.634;-0.946;2023-07-20T01:54:58;26.70;45.00
56172;DHT22;42052;41.634;-0.946;2023-07-20T01:57:23;26.70;45.00
56172;DHT22;42052;41.634;-0.946;2023-07-20T01:59:49;26.70;45.00
56172;DHT22;42052;41.634;-0.946;2023-07-20T02:02:15;26.70;45.00
56172;DHT22;42052;41.634;-0.946;2023-07-20T02:04:40;26.70;44.90
56172;DHT22;42052;41.634;-0.946;2023-07-20T02:07:07;26.70;45.00
56172;DHT22;42052;41.634;-0.946;2023-07-20T02:09:33;26.70;45.00
56172;DHT22;42052;41.634;-0.946;2023-07-20T02:11:58;26.70;45.00
56172;DHT22;42052;41.634;-0.946;2023-07-20T02:14:24;26.70;45.00
56172;DHT22;42052;41.634;-0.946;2023-07-20T02:16:50;26.70;45.00
56172;DHT22;42052;41.634;-0.946;2023-07-20T02:19:25;26.70;45.00
56172;DHT22;42052;41.634;-0.946;2023-07-20T02:21:52;26.70;45.00
56172;DHT22;42052;41.634;-0.946;2023-07-20T02:24:18;26.80;45.00
56172;DHT22;42052;41.634;-0.946;2023-07-20T02:26:44;26.80;45.00
56172;DHT22;42052;41.634;-0.946;2023-07-20T02:29:10;26.70;44.90
56172;DHT22;42052;41.634;-0.946;2023-07-20T02:31:40;26.70;45.00
56172;DHT22;42052;41.634;-0.946;2023-07-20T02:34:06;26.70;44.90
56172;DHT22;42052;41.634;-0.946;2023-07-20T02:36:33;26.70;44.90
56172;DHT22;42052;41.634;-0.946;2023-07-20T02:38:59;26.80;44.90
56172;DHT22;42052;41.634;-0.946;2023-07-20T02:41:25;26.70;45.00
56172;DHT22;42052;41.634;-0.946;2023-07-20T02:43:51;26.70;44.90
56172;DHT22;42052;41.634;-0.946;2023-07-20T02:46:17;26.70;44.90
56172;DHT22;42052;41.634;-0.946;2023-07-20T02:48:43;26.70;44.80
56172;DHT22;42052;41.634;-0.946;2023-07-20T02:51:08;26.70;44.80
56172;DHT22;42052;41.634;-0.946;2023-07-20T02:53:34;26.80;45.10
56172;DHT22;42052;41.634;-0.946;2023-07-20T02:56:01;26.80;44.80
56172;DHT22;42052;41.634;-0.946;2023-07-20T02:58:26;26.70;44.80
56172;DHT22;42052;41.634;-0.946;2023-07-20T03:00:52;26.80;44.90
56172;DHT22;42052;41.634;-0.946;2023-07-20T03:03:18;26.70;44.80
56172;DHT22;42052;41.634;-0.946;2023-07-20T03:05:44;26.70;44.90
56172;DHT22;42052;41.634;-0.946;2023-07-20T03:08:10;26.70;44.90
56172;DHT22;42052;41.634;-0.946;2023-07-20T03:10:39;26.70;44.80
56172;DHT22;42052;41.634;-0.946;2023-07-20T03:13:06;26.70;44.80
56172;DHT22;42052;41.634;-0.946;2023-07-20T03:15:32;26.70;44.80
56172;DHT22;42052;41.634;-0.946;2023-07-20T03:17:58;26.70;44.80
56172;DHT22;42052;41.634;-0.946;2023-07-20T03:20:24;26.70;44.90
56172;DHT22;42052;41.634;-0.946;2023-07-20T03:22:50;26.70;45.00
56172;DHT22;42052;41.634;-0.946;2023-07-20T03:25:16;26.70;44.90
56172;DHT22;42052;41.634;-0.946;2023-07-20T03:27:43;26.70;45.00
56172;DHT22;42052;41.634;-0.946;2023-07-20T03:30:09;26.70;44.90
56172;DHT22;42052;41.634;-0.946;2023-07-20T03:32:35;26.70;45.00
56172;DHT22;42052;41.634;-0.946;2023-07-20T03:35:01;26.70;44.90
56172;DHT22;42052;41.634;-0.946;2023-07-20T03:37:27;26.70;44.90
56172;DHT22;42052;41.634;-0.946;2023-07-20T03:39:53;26.70;44.90
56172;DHT22;42052;41.634;-0.946;2023-07-20T03:42:19;26.70;44.90
56172;DHT22;42052;41.634;-0.946;2023-07-20T03:44:45;26.70;44.90
56172;DHT22;42052;41.634;-0.946;2023-07-20T03:47:10;26.70;44.80
56172;DHT22;42052;41.634;-0.946;2023-07-20T03:49:36;26.70;44.80
56172;DHT22;42052;41.634;-0.946;2023-07-20T03:52:02;26.70;44.80
56172;DHT22;42052;41.634;-0.946;2023-07-20T03:54:31;26.70;44.80
56172;DHT22;42052;41.634;-0.946;2023-07-20T03:56:56;26.70;44.80
56172;DHT22;42052;41.634;-0.946;2023-07-20T03:59:22;26.70;44.80
56172;DHT22;42052;41.634;-0.946;2023-07-20T04:01:48;26.70;44.80
56172;DHT22;42052;41.634;-0.946;2023-07-20T04:04:16;26.70;45.50
56172;DHT22;42052;41.634;-0.946;2023-07-20T04:06:42;26.70;44.80
56172;DHT22;42052;41.634;-0.946;2023-07-20T04:09:12;26.70;45.60
56172;DHT22;42052;41.634;-0.946;2023-07-20T04:11:38;26.70;44.70
56172;DHT22;42052;41.634;-0.946;2023-07-20T04:14:04;26.70;44.80
56172;DHT22;42052;41.634;-0.946;2023-07-20T04:16:30;26.70;44.80
56172;DHT22;42052;41.634;-0.946;2023-07-20T04:18:56;26.70;44.80
56172;DHT22;42052;41.634;-0.946;2023-07-20T04:21:22;26.70;44.80
56172;DHT22;42052;41.634;-0.946;2023-07-20T04:23:48;26.70;44.70
56172;DHT22;42052;41.634;-0.946;2023-07-20T04:26:14;26.70;44.80
56172;DHT22;42052;41.634;-0.946;2023-07-20T04:28:40;26.70;44.80
56172;DHT22;42052;41.634;-0.946;2023-07-20T04:31:15;26.70;44.80
56172;DHT22;42052;41.634;-0.946;2023-07-20T04:33:41;26.70;44.80
56172;DHT22;42052;41.634;-0.946;2023-07-20T04:36:07;26.70;44.80
56172;DHT22;42052;41.634;-0.946;2023-07-20T04:38:33;26.70;44.80
56172;DHT22;42052;41.634;-0.946;2023-07-20T04:40:59;26.70;44.80
56172;DHT22;42052;41.634;-0.946;2023-07-20T04:43:25;26.70;44.80
56172;DHT22;42052;41.634;-0.946;2023-07-20T04:45:52;26.70;44.80
56172;DHT22;42052;41.634;-0.946;2023-07-20T04:48:18;26.70;44.70
56172;DHT22;42052;41.634;-0.946;2023-07-20T04:50:45;26.60;44.60
56172;DHT22;42052;41.634;-0.946;2023-07-20T04:53:12;26.70;44.70
56172;DHT22;42052;41.634;-0.946;2023-07-20T04:55:46;26.70;44.60
56172;DHT22;42052;41.634;-0.946;2023-07-20T04:58:12;26.60;44.60
56172;DHT22;42052;41.634;-0.946;2023-07-20T05:00:38;26.70;44.60
56172;DHT22;42052;41.634;-0.946;2023-07-20T05:03:04;26.70;44.60
56172;DHT22;42052;41.634;-0.946;2023-07-20T05:05:31;26.60;44.50
56172;DHT22;42052;41.634;-0.946;2023-07-20T05:07:57;26.70;44.50
56172;DHT22;42052;41.634;-0.946;2023-07-20T05:10:23;26.60;44.50
56172;DHT22;42052;41.634;-0.946;2023-07-20T05:12:49;26.70;44.60
56172;DHT22;42052;41.634;-0.946;2023-07-20T05:15:15;26.60;44.60
56172;DHT22;42052;41.634;-0.946;2023-07-20T05:17:41;26.60;44.50
56172;DHT22;42052;41.634;-0.946;2023-07-20T05:20:07;26.60;44.50
56172;DHT22;42052;41.634;-0.946;2023-07-20T05:22:36;26.60;44.50
56172;DHT22;42052;41.634;-0.946;2023-07-20T05:25:09;26.70;44.60
56172;DHT22;42052;41.634;-0.946;2023-07-20T05:27:39;26.60;44.70
56172;DHT22;42052;41.634;-0.946;2023-07-20T05:30:05;26.60;44.70
56172;DHT22;42052;41.634;-0.946;2023-07-20T05:32:33;26.60;44.70
56172;DHT22;42052;41.634;-0.946;2023-07-20T05:34:58;26.60;44.60
56172;DHT22;42052;41.634;-0.946;2023-07-20T05:37:24;26.60;44.70
56172;DHT22;42052;41.634;-0.946;2023-07-20T05:39:50;26.60;45.50
56172;DHT22;42052;41.634;-0.946;2023-07-20T05:42:16;26.60;44.70
56172;DHT22;42052;41.634;-0.946;2023-07-20T05:44:42;26.60;44.70
56172;DHT22;42052;41.634;-0.946;2023-07-20T05:47:08;26.60;44.70
56172;DHT22;42052;41.634;-0.946;2023-07-20T05:49:37;26.60;44.80
56172;DHT22;42052;41.634;-0.946;2023-07-20T05:52:02;26.70;44.80
56172;DHT22;42052;41.634;-0.946;2023-07-20T05:54:28;26.70;44.80
56172;DHT22;42052;41.634;-0.946;2023-07-20T05:56:54;26.70;44.80
56172;DHT22;42052;41.634;-0.946;2023-07-20T05:59:20;26.70;44.80
56172;DHT22;42052;41.634;-0.946;2023-07-20T06:01:46;26.70;44.90
56172;DHT22;42052;41.634;-0.946;2023-07-20T06:04:14;26.70;44.90
56172;DHT22;42052;41.634;-0.946;2023-07-20T06:06:40;26.80;44.90
56172;DHT22;42052;41.634;-0.946;2023-07-20T06:09:05;26.80;44.90
56172;DHT22;42052;41.634;-0.946;2023-07-20T06:11:35;26.80;45.00
56172;DHT22;42052;41.634;-0.946;2023-07-20T06:14:01;26.80;44.90
56172;DHT22;42052;41.634;-0.946;2023-07-20T06:16:27;26.80;44.90
56172;DHT22;42052;41.634;-0.946;2023-07-20T06:18:53;26.80;45.00
56172;DHT22;42052;41.634;-0.946;2023-07-20T06:21:19;26.80;45.00
56172;DHT22;42052;41.634;-0.946;2023-07-20T06:23:45;26.80;45.00
56172;DHT22;42052;41.634;-0.946;2023-07-20T06:26:11;26.80;45.00
56172;DHT22;42052;41.634;-0.946;2023-07-20T06:28:37;26.80;45.00
56172;DHT22;42052;41.634;-0.946;2023-07-20T06:31:03;26.80;45.20
56172;DHT22;42052;41.634;-0.946;2023-07-20T06:33:29;26.80;45.70
56172;DHT22;42052;41.634;-0.946;2023-07-20T06:35:55;26.80;45.00
56172;DHT22;42052;41.634;-0.946;2023-07-20T06:38:22;26.80;44.90
56172;DHT22;42052;41.634;-0.946;2023-07-20T06:40:52;26.80;44.90
56172;DHT22;42052;41.634;-0.946;2023-07-20T06:43:17;26.80;45.00
56172;DHT22;42052;41.634;-0.946;2023-07-20T06:45:43;26.80;45.00
56172;DHT22;42052;41.634;-0.946;2023-07-20T06:48:09;26.80;44.90
56172;DHT22;42052;41.634;-0.946;2023-07-20T06:50:35;26.80;45.00
56172;DHT22;42052;41.634;-0.946;2023-07-20T06:53:01;26.80;44.90
56172;DHT22;42052;41.634;-0.946;2023-07-20T06:55:29;26.80;44.90
56172;DHT22;42052;41.634;-0.946;2023-07-20T06:57:55;26.90;45.00
56172;DHT22;42052;41.634;-0.946;2023-07-20T07:00:21;26.90;45.00
56172;DHT22;42052;41.634;-0.946;2023-07-20T07:02:47;26.90;45.00
56172;DHT22;42052;41.634;-0.946;2023-07-20T07:05:12;26.90;45.00
56172;DHT22;42052;41.634;-0.946;2023-07-20T07:07:41;26.90;45.00
56172;DHT22;42052;41.634;-0.946;2023-07-20T07:10:08;26.90;44.90
56172;DHT22;42052;41.634;-0.946;2023-07-20T07:12:34;26.90;45.00
56172;DHT22;42052;41.634;-0.946;2023-07-20T07:15:02;26.90;45.00
56172;DHT22;42052;41.634;-0.946;2023-07-20T07:17:27;26.90;44.90
56172;DHT22;42052;41.634;-0.946;2023-07-20T07:19:54;26.90;45.00
56172;DHT22;42052;41.634;-0.946;2023-07-20T07:22:22;26.90;45.00
56172;DHT22;42052;41.634;-0.946;2023-07-20T07:24:48;26.90;45.00
56172;DHT22;42052;41.634;-0.946;2023-07-20T07:27:13;26.90;45.00
56172;DHT22;42052;41.634;-0.946;2023-07-20T07:29:42;26.90;45.10
56172;DHT22;42052;41.634;-0.946;2023-07-20T07:32:10;26.90;45.00
56172;DHT22;42052;41.634;-0.946;2023-07-20T07:34:36;26.90;45.00
56172;DHT22;42052;41.634;-0.946;2023-07-20T07:37:03;27.00;45.10
56172;DHT22;42052;41.634;-0.946;2023-07-20T07:39:29;27.00;45.00
56172;DHT22;42052;41.634;-0.946;2023-07-20T07:41:56;27.00;45.00
56172;DHT22;42052;41.634;-0.946;2023-07-20T07:44:22;27.00;45.10
56172;DHT22;42052;41.634;-0.946;2023-07-20T07:46:48;27.00;45.10
56172;DHT22;42052;41.634;-0.946;2023-07-20T07:49:14;27.00;45.10
56172;DHT22;42052;41.634;-0.946;2023-07-20T07:51:40;27.00;45.20
56172;DHT22;42052;41.634;-0.946;2023-07-20T07:54:06;27.00;45.00
56172;DHT22;42052;41.634;-0.946;2023-07-20T07:56:31;27.00;45.00
56172;DHT22;42052;41.634;-0.946;2023-07-20T07:58:57;27.00;45.00
56172;DHT22;42052;41.634;-0.946;2023-07-20T08:01:23;27.00;45.10
56172;DHT22;42052;41.634;-0.946;2023-07-20T08:03:49;27.00;45.00
56172;DHT22;42052;41.634;-0.946;2023-07-20T08:06:15;27.00;45.10
56172;DHT22;42052;41.634;-0.946;2023-07-20T08:08:41;27.00;45.10
56172;DHT22;42052;41.634;-0.946;2023-07-20T08:11:08;27.00;45.00
56172;DHT22;42052;41.634;-0.946;2023-07-20T08:13:34;27.00;45.00
56172;DHT22;42052;41.634;-0.946;2023-07-20T08:16:00;27.10;45.10
56172;DHT22;42052;41.634;-0.946;2023-07-20T08:18:28;27.00;45.00
56172;DHT22;42052;41.634;-0.946;2023-07-20T08:20:54;27.10;45.10
56172;DHT22;42052;41.634;-0.946;2023-07-20T08:23:20;27.10;45.10
56172;DHT22;42052;41.634;-0.946;2023-07-20T08:25:46;27.10;45.10
56172;DHT22;42052;41.634;-0.946;2023-07-20T08:28:15;27.10;45.10
56172;DHT22;42052;41.634;-0.946;2023-07-20T08:30:43;27.10;45.20
56172;DHT22;42052;41.634;-0.946;2023-07-20T08:33:10;27.10;45.20
56172;DHT22;42052;41.634;-0.946;2023-07-20T08:35:37;27.10;45.20
56172;DHT22;42052;41.634;-0.946;2023-07-20T08:38:02;27.10;45.20
56172;DHT22;42052;41.634;-0.946;2023-07-20T08:40:34;27.10;45.20
56172;DHT22;42052;41.634;-0.946;2023-07-20T08:43:04;27.10;45.20
56172;DHT22;42052;41.634;-0.946;2023-07-20T08:45:33;27.10;45.10
56172;DHT22;42052;41.634;-0.946;2023-07-20T08:48:01;27.10;45.10
56172;DHT22;42052;41.634;-0.946;2023-07-20T08:50:31;27.10;45.10
56172;DHT22;42052;41.634;-0.946;2023-07-20T08:52:58;27.10;45.20
56172;DHT22;42052;41.634;-0.946;2023-07-20T08:55:26;27.10;45.20
56172;DHT22;42052;41.634;-0.946;2023-07-20T08:57:56;27.10;45.20
56172;DHT22;42052;41.634;-0.946;2023-07-20T09:00:23;27.10;46.00
56172;DHT22;42052;41.634;-0.946;2023-07-20T09:02:52;27.20;45.30
56172;DHT22;42052;41.634;-0.946;2023-07-20T09:05:19;27.20;45.20
56172;DHT22;42052;41.634;-0.946;2023-07-20T09:07:45;27.20;45.20
56172;DHT22;42052;41.634;-0.946;2023-07-20T09:10:11;27.20;45.20
56172;DHT22;42052;41.634;-0.946;2023-07-20T09:12:40;27.20;45.20
56172;DHT22;42052;41.634;-0.946;2023-07-20T09:15:07;27.20;45.20
56172;DHT22;42052;41.634;-0.946;2023-07-20T09:17:33;27.20;45.20
56172;DHT22;42052;41.634;-0.946;2023-07-20T09:20:02;27.20;45.20
56172;DHT22;42052;41.634;-0.946;2023-07-20T09:22:31;27.20;45.20
56172;DHT22;42052;41.634;-0.946;2023-07-20T09:25:00;27.20;45.20
56172;DHT22;42052;41.634;-0.946;2023-07-20T09:27:36;27.20;45.10
56172;DHT22;42052;41.634;-0.946;2023-07-20T09:30:04;27.20;45.20
56172;DHT22;42052;41.634;-0.946;2023-07-20T09:32:30;27.30;45.20
56172;DHT22;42052;41.634;-0.946;2023-07-20T09:34:55;27.30;45.20
56172;DHT22;42052;41.634;-0.946;2023-07-20T09:37:22;27.30;45.20
56172;DHT22;42052;41.634;-0.946;2023-07-20T09:39:52;27.30;45.20
56172;DHT22;42052;41.634;-0.946;2023-07-20T09:42:19;27.30;45.20
56172;DHT22;42052;41.634;-0.946;2023-07-20T09:44:46;27.30;45.20
56172;DHT22;42052;41.634;-0.946;2023-07-20T09:47:12;27.30;45.30
56172;DHT22;42052;41.634;-0.946;2023-07-20T09:49:41;27.30;45.20
56172;DHT22;42052;41.634;-0.946;2023-07-20T09:52:11;27.30;45.20
56172;DHT22;42052;41.634;-0.946;2023-07-20T09:54:38;27.30;45.30
56172;DHT22;42052;41.634;-0.946;2023-07-20T09:57:07;27.30;45.20
56172;DHT22;42052;41.634;-0.946;2023-07-20T09:59:34;27.30;45.20
56172;DHT22;42052;41.634;-0.946;2023-07-20T10:02:02;27.30;45.20
56172;DHT22;42052;41.634;-0.946;2023-07-20T10:04:29;27.30;45.30
56172;DHT22;42052;41.634;-0.946;2023-07-20T10:06:55;27.30;45.20
56172;DHT22;42052;41.634;-0.946;2023-07-20T10:09:24;27.30;45.30
56172;DHT22;42052;41.634;-0.946;2023-07-20T10:11:52;27.40;45.30
56172;DHT22;42052;41.634;-0.946;2023-07-20T10:14:20;27.40;45.30
56172;DHT22;42052;41.634;-0.946;2023-07-20T10:16:57;27.40;45.30
56172;DHT22;42052;41.634;-0.946;2023-07-20T10:19:30;27.40;45.30
56172;DHT22;42052;41.634;-0.946;2023-07-20T10:22:12;27.40;45.30
56172;DHT22;42052;41.634;-0.946;2023-07-20T10:24:39;27.40;45.30
56172;DHT22;42052;41.634;-0.946;2023-07-20T10:27:06;27.40;45.30
56172;DHT22;42052;41.634;-0.946;2023-07-20T10:29:32;27.40;45.30
56172;DHT22;42052;41.634;-0.946;2023-07-20T10:31:59;27.40;46.00
56172;DHT22;42052;41.634;-0.946;2023-07-20T10:34:25;27.40;45.30
56172;DHT22;42052;41.634;-0.946;2023-07-20T10:36:51;27.40;45.30
56172;DHT22;42052;41.634;-0.946;2023-07-20T10:39:27;27.40;45.30
56172;DHT22;42052;41.634;-0.946;2023-07-20T10:42:23;27.40;45.30
56172;DHT22;42052;41.634;-0.946;2023-07-20T10:44:51;27.40;45.30
56172;DHT22;42052;41.634;-0.946;2023-07-20T10:47:17;27.40;45.30
56172;DHT22;42052;41.634;-0.946;2023-07-20T10:49:58;27.40;45.30
56172;DHT22;42052;41.634;-0.946;2023-07-20T10:52:25;27.40;45.30
56172;DHT22;42052;41.634;-0.946;2023-07-20T10:54:51;27.40;45.30
56172;DHT22;42052;41.634;-0.946;2023-07-20T10:57:31;27.40;45.30
56172;DHT22;42052;41.634;-0.946;2023-07-20T11:00:10;27.40;45.30
56172;DHT22;42052;41.634;-0.946;2023-07-20T11:02:47;27.50;45.40
56172;DHT22;42052;41.634;-0.946;2023-07-20T11:05:38;27.50;45.30
56172;DHT22;42052;41.634;-0.946;2023-07-20T11:08:10;27.40;45.30
56172;DHT22;42052;41.634;-0.946;2023-07-20T11:10:36;27.50;45.30
56172;DHT22;42052;41.634;-0.946;2023-07-20T11:13:16;27.50;45.30
56172;DHT22;42052;41.634;-0.946;2023-07-20T11:18:21;27.50;45.30
56172;DHT22;42052;41.634;-0.946;2023-07-20T11:20:50;27.50;45.40
56172;DHT22;42052;41.634;-0.946;2023-07-20T11:23:16;27.50;45.30
56172;DHT22;42052;41.634;-0.946;2023-07-20T11:25:42;27.50;45.40
56172;DHT22;42052;41.634;-0.946;2023-07-20T11:28:08;27.50;45.30
56172;DHT22;42052;41.634;-0.946;2023-07-20T11:30:38;27.50;45.40
56172;DHT22;42052;41.634;-0.946;2023-07-20T11:33:04;27.50;45.40
56172;DHT22;42052;41.634;-0.946;2023-07-20T11:35:31;27.50;45.30
56172;DHT22;42052;41.634;-0.946;2023-07-20T11:38:00;27.60;45.40
56172;DHT22;42052;41.634;-0.946;2023-07-20T11:40:26;27.60;45.40
56172;DHT22;42052;41.634;-0.946;2023-07-20T11:42:51;27.60;45.40
56172;DHT22;42052;41.634;-0.946;2023-07-20T11:45:19;27.60;45.40
56172;DHT22;42052;41.634;-0.946;2023-07-20T11:47:45;27.60;45.40
56172;DHT22;42052;41.634;-0.946;2023-07-20T11:50:11;27.60;45.30
56172;DHT22;42052;41.634;-0.946;2023-07-20T11:52:39;27.60;45.40
56172;DHT22;42052;41.634;-0.946;2023-07-20T11:55:06;27.60;45.40
56172;DHT22;42052;41.634;-0.946;2023-07-20T11:57:33;27.60;45.30
56172;DHT22;42052;41.634;-0.946;2023-07-20T12:00:02;27.60;45.40
56172;DHT22;42052;41.634;-0.946;2023-07-20T12:02:31;27.60;45.30
56172;DHT22;42052;41.634;-0.946;2023-07-20T12:04:57;27.60;45.30
56172;DHT22;42052;41.634;-0.946;2023-07-20T12:07:26;27.60;45.30
56172;DHT22;42052;41.634;-0.946;2023-07-20T12:12:34;27.60;45.30
56172;DHT22;42052;41.634;-0.946;2023-07-20T12:17:52;27.70;45.40
56172;DHT22;42052;41.634;-0.946;2023-07-20T12:20:29;27.60;45.30
56172;DHT22;42052;41.634;-0.946;2023-07-20T12:23:01;27.60;45.30
56172;DHT22;42052;41.634;-0.946;2023-07-20T12:25:44;27.60;45.40
56172;DHT22;42052;41.634;-0.946;2023-07-20T12:28:16;27.60;45.30
56172;DHT22;42052;41.634;-0.946;2023-07-20T12:30:43;27.70;45.30
56172;DHT22;42052;41.634;-0.946;2023-07-20T12:33:10;27.70;45.30
56172;DHT22;42052;41.634;-0.946;2023-07-20T12:35:37;27.60;45.30
56172;DHT22;42052;41.634;-0.946;2023-07-20T12:38:02;27.70;45.40
56172;DHT22;42052;41.634;-0.946;2023-07-20T12:40:28;27.70;45.40
56172;DHT22;42052;41.634;-0.946;2023-07-20T12:42:54;27.70;45.40
56172;DHT22;42052;41.634;-0.946;2023-07-20T12:45:20;27.70;45.40
56172;DHT22;42052;41.634;-0.946;2023-07-20T12:47:47;27.70;45.40
56172;DHT22;42052;41.634;-0.946;2023-07-20T12:50:13;27.70;45.40
56172;DHT22;42052;41.634;-0.946;2023-07-20T12:52:40;27.70;45.40
56172;DHT22;42052;41.634;-0.946;2023-07-20T12:55:07;27.70;45.40
56172;DHT22;42052;41.634;-0.946;2023-07-20T12:57:34;27.70;45.30
56172;DHT22;42052;41.634;-0.946;2023-07-20T13:00:01;27.70;45.30
56172;DHT22;42052;41.634;-0.946;2023-07-20T13:02:30;27.80;45.40
56172;DHT22;42052;41.634;-0.946;2023-07-20T13:04:56;27.70;45.30
56172;DHT22;42052;41.634;-0.946;2023-07-20T13:07:36;27.70;45.30
56172;DHT22;42052;41.634;-0.946;2023-07-20T13:10:03;27.70;45.30
56172;DHT22;42052;41.634;-0.946;2023-07-20T13:12:31;27.70;45.30
56172;DHT22;42052;41.634;-0.946;2023-07-20T13:14:58;27.80;45.40
56172;DHT22;42052;41.634;-0.946;2023-07-20T13:17:28;27.70;45.30
56172;DHT22;42052;41.634;-0.946;2023-07-20T13:19:54;27.70;45.30
56172;DHT22;42052;41.634;-0.946;2023-07-20T13:22:20;27.70;45.30
56172;DHT22;42052;41.634;-0.946;2023-07-20T13:24:46;27.70;46.10
56172;DHT22;42052;41.634;-0.946;2023-07-20T13:27:16;27.70;45.40
56172;DHT22;42052;41.634;-0.946;2023-07-20T13:29:42;27.70;45.40
56172;DHT22;42052;41.634;-0.946;2023-07-20T13:32:08;27.70;45.30
56172;DHT22;42052;41.634;-0.946;2023-07-20T13:34:35;27.70;45.40
56172;DHT22;42052;41.634;-0.946;2023-07-20T13:37:01;27.80;45.40
56172;DHT22;42052;41.634;-0.946;2023-07-20T13:39:27;27.70;45.40
56172;DHT22;42052;41.634;-0.946;2023-07-20T13:41:54;27.80;45.50
56172;DHT22;42052;41.634;-0.946;2023-07-20T13:44:20;27.80;45.50
56172;DHT22;42052;41.634;-0.946;2023-07-20T13:46:49;27.80;45.50
56172;DHT22;42052;41.634;-0.946;2023-07-20T13:49:15;27.80;45.40
56172;DHT22;42052;41.634;-0.946;2023-07-20T13:51:42;27.80;45.40
56172;DHT22;42052;41.634;-0.946;2023-07-20T13:54:08;27.80;45.40
56172;DHT22;42052;41.634;-0.946;2023-07-20T13:56:34;27.80;45.50
56172;DHT22;42052;41.634;-0.946;2023-07-20T13:59:00;27.80;45.50
56172;DHT22;42052;41.634;-0.946;2023-07-20T14:01:26;27.80;45.50
56172;DHT22;42052;41.634;-0.946;2023-07-20T14:03:54;27.80;45.50
56172;DHT22;42052;41.634;-0.946;2023-07-20T14:06:20;27.80;45.50
56172;DHT22;42052;41.634;-0.946;2023-07-20T14:08:46;27.80;45.40
56172;DHT22;42052;41.634;-0.946;2023-07-20T14:11:15;27.90;45.50
56172;DHT22;42052;41.634;-0.946;2023-07-20T14:13:41;27.80;45.40
56172;DHT22;42052;41.634;-0.946;2023-07-20T14:16:07;27.80;45.40
56172;DHT22;42052;41.634;-0.946;2023-07-20T14:18:34;27.80;45.40
56172;DHT22;42052;41.634;-0.946;2023-07-20T14:20:59;27.80;45.40
56172;DHT22;42052;41.634;-0.946;2023-07-20T14:23:28;27.90;45.50
56172;DHT22;42052;41.634;-0.946;2023-07-20T14:25:54;27.80;45.50
56172;DHT22;42052;41.634;-0.946;2023-07-20T14:28:20;27.80;45.50
56172;DHT22;42052;41.634;-0.946;2023-07-20T14:30:46;27.80;45.50
56172;DHT22;42052;41.634;-0.946;2023-07-20T14:33:12;27.80;45.50
56172;DHT22;42052;41.634;-0.946;2023-07-20T14:35:38;27.80;45.50
56172;DHT22;42052;41.634;-0.946;2023-07-20T14:38:04;27.80;45.50
56172;DHT22;42052;41.634;-0.946;2023-07-20T14:40:29;27.80;45.40
56172;DHT22;42052;41.634;-0.946;2023-07-20T14:42:59;27.90;45.50
56172;DHT22;42052;41.634;-0.946;2023-07-20T14:45:27;27.80;45.40
56172;DHT22;42052;41.634;-0.946;2023-07-20T14:47:53;27.80;45.40
56172;DHT22;42052;41.634;-0.946;2023-07-20T14:50:22;27.90;45.60
56172;DHT22;42052;41.634;-0.946;2023-07-20T14:52:48;27.90;45.50
56172;DHT22;42052;41.634;-0.946;2023-07-20T14:55:14;27.90;45.50
56172;DHT22;42052;41.634;-0.946;2023-07-20T14:57:40;27.90;45.50
56172;DHT22;42052;41.634;-0.946;2023-07-20T15:00:06;27.90;45.60
56172;DHT22;42052;41.634;-0.946;2023-07-20T15:02:39;27.90;45.60
56172;DHT22;42052;41.634;-0.946;2023-07-20T15:05:08;27.90;45.60
56172;DHT22;42052;41.634;-0.946;2023-07-20T15:07:35;27.90;45.50
56172;DHT22;42052;41.634;-0.946;2023-07-20T15:10:02;27.90;45.60
56172;DHT22;42052;41.634;-0.946;2023-07-20T15:12:27;27.90;45.60
56172;DHT22;42052;41.634;-0.946;2023-07-20T15:17:30;27.90;45.50
56172;DHT22;42052;41.634;-0.946;2023-07-20T15:19:56;27.90;45.60
56172;DHT22;42052;41.634;-0.946;2023-07-20T15:22:22;27.90;45.50
56172;DHT22;42052;41.634;-0.946;2023-07-20T15:24:48;27.90;45.60
56172;DHT22;42052;41.634;-0.946;2023-07-20T15:27:14;27.90;45.60
56172;DHT22;42052;41.634;-0.946;2023-07-20T15:29:39;27.90;45.60
56172;DHT22;42052;41.634;-0.946;2023-07-20T15:32:06;27.90;45.60
56172;DHT22;42052;41.634;-0.946;2023-07-20T15:34:32;27.90;45.70
56172;DHT22;42052;41.634;-0.946;2023-07-20T15:36:58;27.90;45.60